sensor_id;sensor_type;location;lat;lon;timestamp;pressure;altitude;pressure_sealevel;temperature;humidity
3917;BME280;1973;50.518;7.318;2022-12-18T00:01:27;102335.16;;;-6.57;100.00
3917;BME280;1973;50.518;7.318;2022-12-18T00:03:55;102328.19;;;-6.61;100.00
3917;BME280;1973;50.518;7.318;2022-12-18T00:06:24;102338.06;;;-6.62;100.00
3917;BME280;1973;50.518;7.318;2022-12-18T00:08:50;102327.69;;;-6.69;100.00
3917;BME280;1973;50.518;7.318;2022-12-18T00:11:23;102326.88;;;-6.71;100.00
3917;BME280;1973;50.518;7.318;2022-12-18T00:13:51;102329.63;;;-6.73;100.00
3917;BME280;1973;50.518;7.318;2022-12-18T00:16:20;102334.09;;;-6.73;100.00
3917;BME280;1973;50.518;7.318;2022-12-18T00:18:51;102342.19;;;-6.75;100.00
3917;BME280;1973;50.518;7.318;2022-12-18T00:21:19;102342.19;;;-6.75;100.00
3917;BME280;1973;50.518;7.318;2022-12-18T00:23:47;102331.50;;;-6.75;100.00
3917;BME280;1973;50.518;7.318;2022-12-18T00:26:16;102324.38;;;-6.76;100.00
3917;BME280;1973;50.518;7.318;2022-12-18T00:28:43;102328.91;;;-6.76;100.00
3917;BME280;1973;50.518;7.318;2022-12-18T00:31:13;102331.63;;;-6.78;100.00
3917;BME280;1973;50.518;7.318;2022-12-18T00:33:40;102336.97;;;-6.78;100.00
3917;BME280;1973;50.518;7.318;2022-12-18T00:36:13;102327.16;;;-6.77;100.00
3917;BME280;1973;50.518;7.318;2022-12-18T00:38:40;102327.34;;;-6.82;100.00
3917;BME280;1973;50.518;7.318;2022-12-18T00:41:08;102342.47;;;-6.81;100.00
3917;BME280;1973;50.518;7.318;2022-12-18T00:43:35;102331.91;;;-6.84;100.00
3917;BME280;1973;50.518;7.318;2022-12-18T00:46:03;102338.09;;;-6.83;100.00
3917;BME280;1973;50.518;7.318;2022-12-18T00:48:30;102338.97;;;-6.83;100.00
3917;BME280;1973;50.518;7.318;2022-12-18T00:50:56;102338.97;;;-6.83;100.00
3917;BME280;1973;50.518;7.318;2022-12-18T00:53:23;102343.41;;;-6.82;100.00
3917;BME280;1973;50.518;7.318;2022-12-18T00:55:49;102346.34;;;-6.88;100.00
3917;BME280;1973;50.518;7.318;2022-12-18T00:58:16;102351.06;;;-6.95;100.00
3917;BME280;1973;50.518;7.318;2022-12-18T01:00:43;102346.69;;;-6.96;100.00
3917;BME280;1973;50.518;7.318;2022-12-18T01:03:12;102340.47;;;-6.96;100.00
3917;BME280;1973;50.518;7.318;2022-12-18T01:05:40;102337.78;;;-6.96;100.00
3917;BME280;1973;50.518;7.318;2022-12-18T01:08:07;102348.63;;;-6.99;100.00
3917;BME280;1973;50.518;7.318;2022-12-18T01:10:33;102341.53;;;-7.00;100.00
3917;BME280;1973;50.518;7.318;2022-12-18T01:13:00;102343.13;;;-6.96;100.00
3917;BME280;1973;50.518;7.318;2022-12-18T01:15:26;102341.19;;;-6.93;100.00
3917;BME280;1973;50.518;7.318;2022-12-18T01:17:53;102340.31;;;-6.93;100.00
3917;BME280;1973;50.518;7.318;2022-12-18T01:20:20;102343.13;;;-6.96;100.00
3917;BME280;1973;50.518;7.318;2022-12-18T01:22:46;102346.72;;;-6.97;100.00
3917;BME280;1973;50.518;7.318;2022-12-18T01:25:13;102336.16;;;-7.00;100.00
3917;BME280;1973;50.518;7.318;2022-12-18T01:27:39;102336.22;;;-7.02;100.00
3917;BME280;1973;50.518;7.318;2022-12-18T01:30:06;102340.78;;;-7.04;100.00
3917;BME280;1973;50.518;7.318;2022-12-18T01:32:34;102341.72;;;-7.05;100.00
3917;BME280;1973;50.518;7.318;2022-12-18T01:35:00;102350.59;;;-7.04;100.00
3917;BME280;1973;50.518;7.318;2022-12-18T01:37:27;102340.03;;;-7.07;100.00
3917;BME280;1973;50.518;7.318;2022-12-18T01:39:53;102341.91;;;-7.09;100.00
3917;BME280;1973;50.518;7.318;2022-12-18T01:42:21;102324.88;;;-7.07;100.00
3917;BME280;1973;50.518;7.318;2022-12-18T01:47:43;102342.44;;;-7.01;100.00
3917;BME280;1973;50.518;7.318;2022-12-18T01:50:15;102337.91;;;-6.99;100.00
3917;BME280;1973;50.518;7.318;2022-12-18T01:52:45;102336.97;;;-6.98;100.00
3917;BME280;1973;50.518;7.318;2022-12-18T01:55:15;102340.50;;;-6.98;100.00
3917;BME280;1973;50.518;7.318;2022-12-18T01:57:42;102352.09;;;-6.97;100.00
3917;BME280;1973;50.518;7.318;2022-12-18T02:00:14;102355.44;;;-6.92;100.00
3917;BME280;1973;50.518;7.318;2022-12-18T02:02:41;102342.94;;;-6.92;100.00
3917;BME280;1973;50.518;7.318;2022-12-18T02:05:11;102349.97;;;-6.89;100.00
3917;BME280;1973;50.518;7.318;2022-12-18T02:16:02;102330.69;;;-6.97;100.00
3917;BME280;1973;50.518;7.318;2022-12-18T02:18:38;102325.31;;;-6.97;100.00
3917;BME280;1973;50.518;7.318;2022-12-18T02:23:56;102321.88;;;-6.99;100.00
3917;BME280;1973;50.518;7.318;2022-12-18T02:26:35;102329.06;;;-7.01;100.00
3917;BME280;1973;50.518;7.318;2022-12-18T02:29:08;102325.59;;;-7.03;100.00
3917;BME280;1973;50.518;7.318;2022-12-18T02:31:43;102320.25;;;-7.03;100.00
3917;BME280;1973;50.518;7.318;2022-12-18T02:34:12;102316.75;;;-7.05;100.00
3917;BME280;1973;50.518;7.318;2022-12-18T02:36:42;102322.25;;;-7.08;100.00
3917;BME280;1973;50.518;7.318;2022-12-18T02:39:11;102322.38;;;-7.11;100.00
3917;BME280;1973;50.518;7.318;2022-12-18T02:41:39;102327.59;;;-7.08;100.00
3917;BME280;1973;50.518;7.318;2022-12-18T02:44:09;102336.44;;;-7.06;100.00
3917;BME280;1973;50.518;7.318;2022-12-18T02:46:52;102340.91;;;-7.07;100.00
3917;BME280;1973;50.518;7.318;2022-12-18T02:49:31;102335.75;;;-7.11;100.00
3917;BME280;1973;50.518;7.318;2022-12-18T02:57:48;102323.91;;;-7.26;100.00
3917;BME280;1973;50.518;7.318;2022-12-18T03:00:22;102324.69;;;-7.24;100.00
3917;BME280;1973;50.518;7.318;2022-12-18T03:08:29;102322.41;;;-7.33;100.00
3917;BME280;1973;50.518;7.318;2022-12-18T03:11:03;102325.97;;;-7.32;100.00
3917;BME280;1973;50.518;7.318;2022-12-18T03:16:22;102328.78;;;-7.35;100.00
3917;BME280;1973;50.518;7.318;2022-12-18T03:18:54;102323.66;;;-7.42;100.00
3917;BME280;1973;50.518;7.318;2022-12-18T03:21:38;102313.09;;;-7.45;100.00
3917;BME280;1973;50.518;7.318;2022-12-18T03:24:08;102320.56;;;-7.53;100.00
3917;BME280;1973;50.518;7.318;2022-12-18T03:26:38;102314.47;;;-7.56;100.00
3917;BME280;1973;50.518;7.318;2022-12-18T03:29:10;102306.75;;;-7.64;100.00
3917;BME280;1973;50.518;7.318;2022-12-18T03:31:41;102306.75;;;-7.64;100.00
3917;BME280;1973;50.518;7.318;2022-12-18T03:34:14;102311.31;;;-7.66;100.00
3917;BME280;1973;50.518;7.318;2022-12-18T03:36:41;102314.13;;;-7.69;100.00
3917;BME280;1973;50.518;7.318;2022-12-18T03:39:08;102308.19;;;-7.77;100.00
3917;BME280;1973;50.518;7.318;2022-12-18T03:41:43;102309.94;;;-7.76;100.00
3917;BME280;1973;50.518;7.318;2022-12-18T03:44:21;102298.31;;;-7.75;100.00
3917;BME280;1973;50.518;7.318;2022-12-18T03:47:06;102301.81;;;-7.73;100.00
3917;BME280;1973;50.518;7.318;2022-12-18T03:49:47;102290.97;;;-7.70;100.00
3917;BME280;1973;50.518;7.318;2022-12-18T03:52:35;102292.72;;;-7.69;100.00
3917;BME280;1973;50.518;7.318;2022-12-18T03:55:03;102294.44;;;-7.68;100.00
3917;BME280;1973;50.518;7.318;2022-12-18T03:57:32;102291.66;;;-7.65;100.00
3917;BME280;1973;50.518;7.318;2022-12-18T04:00:07;102293.34;;;-7.62;100.00
3917;BME280;1973;50.518;7.318;2022-12-18T04:02:37;102284.41;;;-7.61;100.00
3917;BME280;1973;50.518;7.318;2022-12-18T04:05:06;102291.53;;;-7.62;100.00
3917;BME280;1973;50.518;7.318;2022-12-18T04:07:33;102290.84;;;-7.67;100.00
3917;BME280;1973;50.518;7.318;2022-12-18T04:10:02;102292.81;;;-7.72;100.00
3917;BME280;1973;50.518;7.318;2022-12-18T04:12:29;102284.91;;;-7.73;100.00
3917;BME280;1973;50.518;7.318;2022-12-18T04:14:56;102279.56;;;-7.73;100.00
3917;BME280;1973;50.518;7.318;2022-12-18T04:17:22;102282.03;;;-7.69;100.00
3917;BME280;1973;50.518;7.318;2022-12-18T04:19:50;102289.09;;;-7.68;100.00
3917;BME280;1973;50.518;7.318;2022-12-18T04:22:16;102288.19;;;-7.67;100.00
3917;BME280;1973;50.518;7.318;2022-12-18T04:24:43;102283.75;;;-7.68;100.00
3917;BME280;1973;50.518;7.318;2022-12-18T04:27:09;102280.16;;;-7.67;100.00
3917;BME280;1973;50.518;7.318;2022-12-18T04:29:35;102282.88;;;-7.68;100.00
3917;BME280;1973;50.518;7.318;2022-12-18T04:32:02;102282.13;;;-7.72;100.00
3917;BME280;1973;50.518;7.318;2022-12-18T04:34:28;102282.13;;;-7.72;100.00
3917;BME280;1973;50.518;7.318;2022-12-18T04:36:55;102284.03;;;-7.74;100.00
3917;BME280;1973;50.518;7.318;2022-12-18T04:39:22;102281.53;;;-7.78;100.00
3917;BME280;1973;50.518;7.318;2022-12-18T04:41:49;102283.53;;;-7.83;100.00
3917;BME280;1973;50.518;7.318;2022-12-18T04:44:16;102279.28;;;-7.89;100.00
3917;BME280;1973;50.518;7.318;2022-12-18T04:46:42;102277.50;;;-7.89;100.00
3917;BME280;1973;50.518;7.318;2022-12-18T04:49:09;102282.88;;;-7.90;100.00
3917;BME280;1973;50.518;7.318;2022-12-18T04:51:39;102275.69;;;-7.88;100.00
3917;BME280;1973;50.518;7.318;2022-12-18T04:54:05;102279.41;;;-7.92;100.00
3917;BME280;1973;50.518;7.318;2022-12-18T04:56:32;102282.25;;;-7.97;100.00
3917;BME280;1973;50.518;7.318;2022-12-18T04:58:58;102288.75;;;-8.02;100.00
3917;BME280;1973;50.518;7.318;2022-12-18T05:01:24;102285.50;;;-8.10;100.00
3917;BME280;1973;50.518;7.318;2022-12-18T05:03:59;102278.88;;;-8.23;100.00
3917;BME280;1973;50.518;7.318;2022-12-18T05:06:26;102281.66;;;-8.26;100.00
3917;BME280;1973;50.518;7.318;2022-12-18T05:08:52;102279.28;;;-8.32;100.00
3917;BME280;1973;50.518;7.318;2022-12-18T05:11:18;102270.44;;;-8.34;100.00
3917;BME280;1973;50.518;7.318;2022-12-18T05:13:45;102269.66;;;-8.36;100.00
3917;BME280;1973;50.518;7.318;2022-12-18T05:16:12;102270.56;;;-8.38;100.00
3917;BME280;1973;50.518;7.318;2022-12-18T05:18:39;102276.72;;;-8.35;100.00
3917;BME280;1973;50.518;7.318;2022-12-18T05:21:05;102281.19;;;-8.36;100.00
3917;BME280;1973;50.518;7.318;2022-12-18T05:23:32;102274.09;;;-8.37;100.00
3917;BME280;1973;50.518;7.318;2022-12-18T05:26:00;102275.84;;;-8.36;100.00
3917;BME280;1973;50.518;7.318;2022-12-18T05:28:29;102272.31;;;-8.36;100.00
3917;BME280;1973;50.518;7.318;2022-12-18T05:30:58;102275.91;;;-8.38;100.00
3917;BME280;1973;50.518;7.318;2022-12-18T05:33:28;102265.34;;;-8.41;100.00
3917;BME280;1973;50.518;7.318;2022-12-18T05:35:57;102270.72;;;-8.42;100.00
3917;BME280;1973;50.518;7.318;2022-12-18T05:38:25;102276.03;;;-8.41;100.00
3917;BME280;1973;50.518;7.318;2022-12-18T05:40:53;102267.09;;;-8.40;100.00
3917;BME280;1973;50.518;7.318;2022-12-18T05:43:20;102275.91;;;-8.38;100.00
3917;BME280;1973;50.518;7.318;2022-12-18T05:45:50;102278.66;;;-8.39;100.00
3917;BME280;1973;50.518;7.318;2022-12-18T05:48:17;102275.16;;;-8.41;100.00
3917;BME280;1973;50.518;7.318;2022-12-18T05:50:45;102282.38;;;-8.43;100.00
3917;BME280;1973;50.518;7.318;2022-12-18T05:53:14;102284.06;;;-8.42;100.00
3917;BME280;1973;50.518;7.318;2022-12-18T05:55:41;102280.56;;;-8.43;100.00
3917;BME280;1973;50.518;7.318;2022-12-18T05:58:09;102284.84;;;-8.39;100.00
3917;BME280;1973;50.518;7.318;2022-12-18T06:00:38;102282.16;;;-8.39;100.00
3917;BME280;1973;50.518;7.318;2022-12-18T06:03:10;102286.81;;;-8.44;100.00
3917;BME280;1973;50.518;7.318;2022-12-18T06:05:44;102290.41;;;-8.45;100.00
3917;BME280;1973;50.518;7.318;2022-12-18T06:08:12;102300.22;;;-8.45;100.00
3917;BME280;1973;50.518;7.318;2022-12-18T06:10:39;102288.56;;;-8.43;100.00
3917;BME280;1973;50.518;7.318;2022-12-18T06:13:06;102297.50;;;-8.44;100.00
3917;BME280;1973;50.518;7.318;2022-12-18T06:15:36;102309.94;;;-8.43;100.00
3917;BME280;1973;50.518;7.318;2022-12-18T06:18:03;102305.38;;;-8.41;100.00
3917;BME280;1973;50.518;7.318;2022-12-18T06:20:29;102303.50;;;-8.39;100.00
3917;BME280;1973;50.518;7.318;2022-12-18T06:22:59;102316.78;;;-8.35;100.00
3917;BME280;1973;50.518;7.318;2022-12-18T06:25:26;102311.31;;;-8.32;100.00
3917;BME280;1973;50.518;7.318;2022-12-18T06:27:52;102312.19;;;-8.32;100.00
3917;BME280;1973;50.518;7.318;2022-12-18T06:30:19;102325.53;;;-8.32;100.00
3917;BME280;1973;50.518;7.318;2022-12-18T06:32:45;102314.78;;;-8.30;100.00
3917;BME280;1973;50.518;7.318;2022-12-18T06:35:18;102316.38;;;-8.26;100.00
3917;BME280;1973;50.518;7.318;2022-12-18T06:37:46;102317.25;;;-8.26;100.00
3917;BME280;1973;50.518;7.318;2022-12-18T06:40:12;102316.38;;;-8.26;100.00
3917;BME280;1973;50.518;7.318;2022-12-18T06:42:39;102321.06;;;-8.31;100.00
3917;BME280;1973;50.518;7.318;2022-12-18T06:45:06;102330.16;;;-8.37;100.00
3917;BME280;1973;50.518;7.318;2022-12-18T06:47:32;102327.75;;;-8.43;100.00
3917;BME280;1973;50.518;7.318;2022-12-18T06:49:59;102307.53;;;-8.50;100.00
3917;BME280;1973;50.518;7.318;2022-12-18T06:52:25;102307.84;;;-8.58;100.00
3917;BME280;1973;50.518;7.318;2022-12-18T06:54:51;102308.09;;;-8.65;100.00
3917;BME280;1973;50.518;7.318;2022-12-18T06:57:18;102303.97;;;-8.74;100.00
3917;BME280;1973;50.518;7.318;2022-12-18T06:59:44;102309.56;;;-8.81;100.00
3917;BME280;1973;50.518;7.318;2022-12-18T07:02:12;102311.72;;;-8.91;100.00
3917;BME280;1973;50.518;7.318;2022-12-18T07:04:39;102310.19;;;-8.98;100.00
3917;BME280;1973;50.518;7.318;2022-12-18T07:07:05;102312.13;;;-9.03;100.00
3917;BME280;1973;50.518;7.318;2022-12-18T07:09:32;102310.50;;;-9.07;100.00
3917;BME280;1973;50.518;7.318;2022-12-18T07:11:58;102306.09;;;-9.08;100.00
3917;BME280;1973;50.518;7.318;2022-12-18T07:14:25;102308.75;;;-9.08;100.00
3917;BME280;1973;50.518;7.318;2022-12-18T07:16:51;102310.63;;;-9.10;100.00
3917;BME280;1973;50.518;7.318;2022-12-18T07:19:18;102313.94;;;-9.04;100.00
3917;BME280;1973;50.518;7.318;2022-12-18T07:21:44;102317.34;;;-9.00;100.00
3917;BME280;1973;50.518;7.318;2022-12-18T07:24:11;102323.41;;;-8.95;100.00
3917;BME280;1973;50.518;7.318;2022-12-18T07:26:38;102335.59;;;-8.88;100.00
3917;BME280;1973;50.518;7.318;2022-12-18T07:29:04;102336.28;;;-8.83;100.00
3917;BME280;1973;50.518;7.318;2022-12-18T07:31:30;102329.00;;;-8.78;100.00
3917;BME280;1973;50.518;7.318;2022-12-18T07:33:57;102331.28;;;-8.67;100.00
3917;BME280;1973;50.518;7.318;2022-12-18T07:36:24;102331.72;;;-8.55;100.00
3917;BME280;1973;50.518;7.318;2022-12-18T07:38:50;102322.69;;;-8.51;100.00
3917;BME280;1973;50.518;7.318;2022-12-18T07:41:18;102322.41;;;-8.43;100.00
3917;BME280;1973;50.518;7.318;2022-12-18T07:43:46;102323.97;;;-8.38;100.00
3917;BME280;1973;50.518;7.318;2022-12-18T07:46:13;102317.56;;;-8.33;100.00
3917;BME280;1973;50.518;7.318;2022-12-18T07:48:41;102313.06;;;-8.31;100.00
3917;BME280;1973;50.518;7.318;2022-12-18T07:51:11;102316.47;;;-8.28;100.00
3917;BME280;1973;50.518;7.318;2022-12-18T07:53:38;102305.84;;;-8.29;100.00
3917;BME280;1973;50.518;7.318;2022-12-18T07:56:08;102318.28;;;-8.28;100.00
3917;BME280;1973;50.518;7.318;2022-12-18T07:58:55;102318.28;;;-8.28;100.00
3917;BME280;1973;50.518;7.318;2022-12-18T08:01:21;102327.88;;;-8.24;100.00
3917;BME280;1973;50.518;7.318;2022-12-18T08:03:48;102330.44;;;-8.21;100.00
3917;BME280;1973;50.518;7.318;2022-12-18T08:06:17;102332.06;;;-8.17;100.00
3917;BME280;1973;50.518;7.318;2022-12-18T08:08:44;102321.19;;;-8.13;100.00
3917;BME280;1973;50.518;7.318;2022-12-18T08:11:10;102313.00;;;-8.08;100.00
3917;BME280;1973;50.518;7.318;2022-12-18T08:13:37;102298.59;;;-8.04;100.00
3917;BME280;1973;50.518;7.318;2022-12-18T08:16:06;102293.06;;;-8.00;100.00
3917;BME280;1973;50.518;7.318;2022-12-18T08:18:34;102289.22;;;-7.93;100.00
3917;BME280;1973;50.518;7.318;2022-12-18T08:21:12;102295.19;;;-7.86;100.00
3917;BME280;1973;50.518;7.318;2022-12-18T08:23:39;102286.88;;;-7.78;100.00
3917;BME280;1973;50.518;7.318;2022-12-18T08:26:10;102294.56;;;-7.71;100.00
3917;BME280;1973;50.518;7.318;2022-12-18T08:28:36;102282.97;;;-7.70;100.00
3917;BME280;1973;50.518;7.318;2022-12-18T08:31:03;102286.19;;;-7.62;100.00
3917;BME280;1973;50.518;7.318;2022-12-18T08:33:30;102273.63;;;-7.60;100.00
3917;BME280;1973;50.518;7.318;2022-12-18T08:36:01;102276.28;;;-7.60;100.00
3917;BME280;1973;50.518;7.318;2022-12-18T08:38:28;102279.66;;;-7.55;100.00
3917;BME280;1973;50.518;7.318;2022-12-18T08:41:03;102284.88;;;-7.52;100.00
3917;BME280;1973;50.518;7.318;2022-12-18T08:43:30;102283.72;;;-7.46;100.00
3917;BME280;1973;50.518;7.318;2022-12-18T08:46:16;102279.94;;;-7.41;100.00
3917;BME280;1973;50.518;7.318;2022-12-18T08:48:43;102276.88;;;-7.31;100.00
3917;BME280;1973;50.518;7.318;2022-12-18T08:51:09;102273.09;;;-7.26;100.00
3917;BME280;1973;50.518;7.318;2022-12-18T08:53:36;102275.69;;;-7.24;100.00
3917;BME280;1973;50.518;7.318;2022-12-18T08:56:04;102279.91;;;-7.19;100.00
3917;BME280;1973;50.518;7.318;2022-12-18T08:58:31;102267.13;;;-7.12;100.00
3917;BME280;1973;50.518;7.318;2022-12-18T09:01:02;102266.97;;;-7.09;100.00
3917;BME280;1973;50.518;7.318;2022-12-18T09:03:29;102270.34;;;-7.04;100.00
3917;BME280;1973;50.518;7.318;2022-12-18T09:05:56;102277.03;;;-6.94;100.00
3917;BME280;1973;50.518;7.318;2022-12-18T09:08:22;102291.88;;;-6.87;100.00
3917;BME280;1973;50.518;7.318;2022-12-18T09:10:51;102281.91;;;-6.83;100.00
3917;BME280;1973;50.518;7.318;2022-12-18T09:13:18;102277.06;;;-6.75;100.00
3917;BME280;1973;50.518;7.318;2022-12-18T09:15:47;102272.25;;;-6.67;100.00
3917;BME280;1973;50.518;7.318;2022-12-18T09:18:15;102270.31;;;-6.64;100.00
3917;BME280;1973;50.518;7.318;2022-12-18T09:20:42;102270.53;;;-6.50;100.00
3917;BME280;1973;50.518;7.318;2022-12-18T09:23:09;102275.53;;;-6.42;100.00
3917;BME280;1973;50.518;7.318;2022-12-18T09:25:37;102265.41;;;-6.35;100.00
3917;BME280;1973;50.518;7.318;2022-12-18T09:28:11;102276.72;;;-6.29;100.00
3917;BME280;1973;50.518;7.318;2022-12-18T09:30:43;102281.06;;;-6.26;100.00
3917;BME280;1973;50.518;7.318;2022-12-18T09:33:10;102271.94;;;-6.22;100.00
3917;BME280;1973;50.518;7.318;2022-12-18T09:35:38;102278.91;;;-6.18;100.00
3917;BME280;1973;50.518;7.318;2022-12-18T09:38:05;102263.25;;;-6.09;100.00
3917;BME280;1973;50.518;7.318;2022-12-18T09:40:39;102260.69;;;-5.93;100.00
3917;BME280;1973;50.518;7.318;2022-12-18T09:43:35;102252.59;;;-5.74;100.00
3917;BME280;1973;50.518;7.318;2022-12-18T09:46:05;102247.19;;;-5.56;100.00
3917;BME280;1973;50.518;7.318;2022-12-18T09:48:35;102242.31;;;-5.30;100.00
3917;BME280;1973;50.518;7.318;2022-12-18T09:51:12;102242.00;;;-5.07;100.00
3917;BME280;1973;50.518;7.318;2022-12-18T09:53:41;102227.38;;;-4.84;100.00
3917;BME280;1973;50.518;7.318;2022-12-18T09:56:16;102222.66;;;-4.64;100.00
3917;BME280;1973;50.518;7.318;2022-12-18T09:59:01;102233.19;;;-4.44;100.00
3917;BME280;1973;50.518;7.318;2022-12-18T10:01:29;102235.19;;;-4.31;100.00
3917;BME280;1973;50.518;7.318;2022-12-18T10:04:08;102226.44;;;-4.19;100.00
3917;BME280;1973;50.518;7.318;2022-12-18T10:06:43;102219.75;;;-4.12;100.00
3917;BME280;1973;50.518;7.318;2022-12-18T10:09:35;102217.50;;;-4.04;100.00
3917;BME280;1973;50.518;7.318;2022-12-18T10:12:29;102210.22;;;-4.02;100.00
3917;BME280;1973;50.518;7.318;2022-12-18T10:26:06;102200.25;;;-3.84;100.00
3917;BME280;1973;50.518;7.318;2022-12-18T10:28:37;102199.78;;;-3.77;100.00
3917;BME280;1973;50.518;7.318;2022-12-18T10:31:07;102205.88;;;-3.73;100.00
3917;BME280;1973;50.518;7.318;2022-12-18T10:33:34;102196.13;;;-3.60;100.00
3917;BME280;1973;50.518;7.318;2022-12-18T10:36:00;102183.38;;;-3.42;100.00
3917;BME280;1973;50.518;7.318;2022-12-18T10:38:31;102191.13;;;-3.22;100.00
3917;BME280;1973;50.518;7.318;2022-12-18T10:43:28;102178.56;;;-2.79;100.00
3917;BME280;1973;50.518;7.318;2022-12-18T10:51:28;102155.56;;;-2.42;100.00
3917;BME280;1973;50.518;7.318;2022-12-18T10:54:00;102161.78;;;-2.28;100.00
3917;BME280;1973;50.518;7.318;2022-12-18T10:56:30;102159.25;;;-2.17;100.00
3917;BME280;1973;50.518;7.318;2022-12-18T10:59:01;102153.16;;;-2.06;100.00
3917;BME280;1973;50.518;7.318;2022-12-18T11:01:48;102139.81;;;-1.95;100.00
3917;BME280;1973;50.518;7.318;2022-12-18T11:04:29;102140.75;;;-1.82;100.00
3917;BME280;1973;50.518;7.318;2022-12-18T11:07:04;102157.53;;;-1.91;100.00
3917;BME280;1973;50.518;7.318;2022-12-18T11:09:33;102161.09;;;-1.64;100.00
3917;BME280;1973;50.518;7.318;2022-12-18T11:12:05;102170.19;;;-1.52;100.00
3917;BME280;1973;50.518;7.318;2022-12-18T11:17:28;102168.38;;;-1.39;100.00
3917;BME280;1973;50.518;7.318;2022-12-18T11:19:58;102158.66;;;-1.29;100.00
3917;BME280;1973;50.518;7.318;2022-12-18T11:22:30;102142.56;;;-1.18;100.00
3917;BME280;1973;50.518;7.318;2022-12-18T11:25:23;102140.66;;;-1.16;100.00
3917;BME280;1973;50.518;7.318;2022-12-18T11:28:03;102138.47;;;-1.11;100.00
3917;BME280;1973;50.518;7.318;2022-12-18T11:30:35;102137.63;;;-1.11;100.00
3917;BME280;1973;50.518;7.318;2022-12-18T11:33:09;102137.94;;;-1.16;100.00
3917;BME280;1973;50.518;7.318;2022-12-18T11:35:51;102137.41;;;-1.08;100.00
3917;BME280;1973;50.518;7.318;2022-12-18T11:38:40;102134.03;;;-0.99;100.00
3917;BME280;1973;50.518;7.318;2022-12-18T11:44:38;102139.34;;;-0.85;100.00
3917;BME280;1973;50.518;7.318;2022-12-18T11:50:14;102128.66;;;-0.99;100.00
3917;BME280;1973;50.518;7.318;2022-12-18T11:52:42;102131.34;;;-0.99;100.00
3917;BME280;1973;50.518;7.318;2022-12-18T11:59:01;102124.22;;;-1.00;100.00
3917;BME280;1973;50.518;7.318;2022-12-18T12:01:15;102112.97;;;-0.94;100.00
3917;BME280;1973;50.518;7.318;2022-12-18T12:09:49;102093.19;;;-1.07;100.00
3917;BME280;1973;50.518;7.318;2022-12-18T12:12:31;102096.66;;;-1.05;100.00
3917;BME280;1973;50.518;7.318;2022-12-18T12:21:18;102093.84;;;-1.16;100.00
3917;BME280;1973;50.518;7.318;2022-12-18T12:29:59;102067.59;;;-1.27;100.00
3917;BME280;1973;50.518;7.318;2022-12-18T12:35:31;102062.06;;;-1.76;100.00
3917;BME280;1973;50.518;7.318;2022-12-18T12:40:57;102061.91;;;-1.87;100.00
3917;BME280;1973;50.518;7.318;2022-12-18T12:43:32;102058.59;;;-1.78;100.00
3917;BME280;1973;50.518;7.318;2022-12-18T12:46:08;102043.59;;;-1.82;100.00
3917;BME280;1973;50.518;7.318;2022-12-18T12:51:39;102029.19;;;-1.95;100.00
3917;BME280;1973;50.518;7.318;2022-12-18T12:54:15;102029.75;;;-1.90;100.00
3917;BME280;1973;50.518;7.318;2022-12-18T12:56:52;102036.47;;;-1.83;100.00
3917;BME280;1973;50.518;7.318;2022-12-18T12:59:39;102032.38;;;-1.76;100.00
3917;BME280;1973;50.518;7.318;2022-12-18T13:02:22;102035.50;;;-1.82;100.00
3917;BME280;1973;50.518;7.318;2022-12-18T13:07:52;102038.41;;;-1.72;100.00
3917;BME280;1973;50.518;7.318;2022-12-18T13:10:48;102041.53;;;-1.66;100.00
3917;BME280;1973;50.518;7.318;2022-12-18T13:13:15;102040.81;;;-1.68;100.00
3917;BME280;1973;50.518;7.318;2022-12-18T13:16:05;102027.41;;;-1.57;100.00
3917;BME280;1973;50.518;7.318;2022-12-18T13:18:33;102020.53;;;-1.48;100.00
3917;BME280;1973;50.518;7.318;2022-12-18T13:23:36;102020.72;;;-1.38;100.00
3917;BME280;1973;50.518;7.318;2022-12-18T13:31:00;102020.50;;;-1.35;100.00
3917;BME280;1973;50.518;7.318;2022-12-18T13:36:13;102020.41;;;-1.47;100.00
3917;BME280;1973;50.518;7.318;2022-12-18T13:38:41;102027.75;;;-1.49;100.00
3917;BME280;1973;50.518;7.318;2022-12-18T13:43:47;102017.91;;;-1.50;100.00
3917;BME280;1973;50.518;7.318;2022-12-18T13:46:41;102026.66;;;-1.46;100.00
3917;BME280;1973;50.518;7.318;2022-12-18T13:51:43;102016.72;;;-1.45;100.00
3917;BME280;1973;50.518;7.318;2022-12-18T13:54:33;102014.13;;;-1.47;100.00
3917;BME280;1973;50.518;7.318;2022-12-18T13:57:01;102020.41;;;-1.47;100.00
3917;BME280;1973;50.518;7.318;2022-12-18T13:59:36;102022.13;;;-1.45;100.00
3917;BME280;1973;50.518;7.318;2022-12-18T14:02:27;102028.28;;;-1.43;100.00
3917;BME280;1973;50.518;7.318;2022-12-18T14:04:54;102028.28;;;-1.43;100.00
3917;BME280;1973;50.518;7.318;2022-12-18T14:07:24;102017.28;;;-1.40;100.00
3917;BME280;1973;50.518;7.318;2022-12-18T14:09:56;102010.00;;;-1.40;100.00
3917;BME280;1973;50.518;7.318;2022-12-18T14:12:48;102017.28;;;-1.40;100.00
3917;BME280;1973;50.518;7.318;2022-12-18T14:15:46;102016.72;;;-1.45;100.00
3917;BME280;1973;50.518;7.318;2022-12-18T14:18:31;102014.03;;;-1.45;100.00
3917;BME280;1973;50.518;7.318;2022-12-18T14:21:02;102018.13;;;-1.53;100.00
3917;BME280;1973;50.518;7.318;2022-12-18T14:26:02;102003.34;;;-1.60;100.00
3917;BME280;1973;50.518;7.318;2022-12-18T14:28:31;102003.56;;;-1.63;100.00
3917;BME280;1973;50.518;7.318;2022-12-18T14:30:58;102009.94;;;-1.64;100.00
3917;BME280;1973;50.518;7.318;2022-12-18T14:33:26;102000.31;;;-1.68;100.00
3917;BME280;1973;50.518;7.318;2022-12-18T14:35:59;101997.84;;;-1.71;100.00
3917;BME280;1973;50.518;7.318;2022-12-18T14:38:29;101994.59;;;-1.76;100.00
3917;BME280;1973;50.518;7.318;2022-12-18T14:43:25;101987.97;;;-1.84;100.00
3917;BME280;1973;50.518;7.318;2022-12-18T14:45:52;101984.44;;;-1.85;100.00
3917;BME280;1973;50.518;7.318;2022-12-18T14:53:42;101976.88;;;-1.92;100.00
3917;BME280;1973;50.518;7.318;2022-12-18T14:56:28;101979.03;;;-1.98;100.00
3917;BME280;1973;50.518;7.318;2022-12-18T14:59:03;101986.38;;;-2.00;100.00
3917;BME280;1973;50.518;7.318;2022-12-18T15:01:38;101989.38;;;-2.04;100.00
3917;BME280;1973;50.518;7.318;2022-12-18T15:04:40;101981.81;;;-2.12;100.00
3917;BME280;1973;50.518;7.318;2022-12-18T15:07:18;101980.72;;;-2.09;100.00
3917;BME280;1973;50.518;7.318;2022-12-18T15:12:44;101986.56;;;-2.15;100.00
3917;BME280;1973;50.518;7.318;2022-12-18T15:18:01;101978.56;;;-2.17;100.00
3917;BME280;1973;50.518;7.318;2022-12-18T15:20:31;101993.66;;;-2.14;100.00